createdAt,value
2023-05-12T00:01:24.169Z,13.90
2023-05-12T00:03:54.314Z,13.90
2023-05-12T00:06:22.253Z,13.80
2023-05-12T00:08:49.272Z,13.80
2023-05-12T00:11:16.668Z,13.80
2023-05-12T00:13:44.117Z,13.80
2023-05-12T00:16:11.635Z,13.80
2023-05-12T00:18:39.060Z,13.90
2023-05-12T00:21:08.778Z,13.90
2023-05-12T00:23:36.178Z,13.90
2023-05-12T00:26:03.442Z,13.80
2023-05-12T00:28:30.670Z,13.80
2023-05-12T00:31:02.840Z,13.80
2023-05-12T00:33:30.734Z,13.80
2023-05-12T00:35:57.950Z,13.80
2023-05-12T00:38:25.050Z,13.80
2023-05-12T00:40:52.293Z,13.70
2023-05-12T00:43:19.515Z,13.60
2023-05-12T00:45:46.839Z,13.70
2023-05-12T00:48:14.540Z,13.70
2023-05-12T00:50:42.314Z,13.70
2023-05-12T00:53:10.377Z,13.70
2023-05-12T00:55:37.676Z,13.60
2023-05-12T00:58:05.573Z,13.70
2023-05-12T01:00:32.785Z,13.60
2023-05-12T01:03:00.181Z,13.60
2023-05-12T01:05:32.157Z,13.60
2023-05-12T01:08:01.351Z,13.60
2023-05-12T01:10:31.453Z,13.70
2023-05-12T01:12:58.779Z,13.60
2023-05-12T01:15:26.207Z,13.60
2023-05-12T01:17:57.773Z,13.60
2023-05-12T01:20:27.059Z,13.50
2023-05-12T01:22:55.611Z,13.50
2023-05-12T01:25:24.941Z,13.50
2023-05-12T01:27:53.841Z,13.50
2023-05-12T01:30:23.225Z,13.50
2023-05-12T01:32:51.984Z,13.40
2023-05-12T01:35:19.761Z,13.40
2023-05-12T01:37:46.819Z,13.50
2023-05-12T01:40:14.271Z,13.50
2023-05-12T01:42:42.713Z,13.50
2023-05-12T01:45:10.474Z,13.50
2023-05-12T01:47:37.841Z,13.50
2023-05-12T01:50:05.608Z,13.50
2023-05-12T01:52:32.910Z,13.60
2023-05-12T01:55:00.440Z,13.50
2023-05-12T01:57:27.711Z,13.60
2023-05-12T01:59:57.329Z,13.40
2023-05-12T02:02:24.654Z,13.20
2023-05-12T02:04:52.168Z,13.20
2023-05-12T02:07:19.213Z,13.20
2023-05-12T02:09:46.631Z,13.20
2023-05-12T02:12:13.607Z,13.10
2023-05-12T02:14:40.732Z,13.10
2023-05-12T02:17:07.920Z,13.20
2023-05-12T02:19:35.040Z,13.00
2023-05-12T02:22:02.660Z,13.00
2023-05-12T02:24:29.723Z,12.90
2023-05-12T02:26:56.919Z,12.90
2023-05-12T02:29:24.078Z,12.90
2023-05-12T02:31:51.160Z,12.90
2023-05-12T02:34:18.607Z,13.00
2023-05-12T02:36:45.848Z,12.90
2023-05-12T02:39:13.793Z,12.90
2023-05-12T02:41:40.830Z,12.80
2023-05-12T02:44:08.040Z,12.80
2023-05-12T02:46:35.090Z,12.80
2023-05-12T02:49:02.196Z,12.80
2023-05-12T02:51:29.555Z,12.70
2023-05-12T02:53:56.916Z,12.70
2023-05-12T02:56:24.229Z,12.70
2023-05-12T02:58:51.314Z,12.70
2023-05-12T03:01:18.591Z,12.60
2023-05-12T03:03:45.961Z,12.60
2023-05-12T03:06:13.100Z,12.60
2023-05-12T03:08:40.045Z,12.60
2023-05-12T03:11:07.109Z,12.60
2023-05-12T03:13:34.314Z,12.60
2023-05-12T03:16:01.869Z,12.60
2023-05-12T03:18:29.429Z,12.60
2023-05-12T03:20:56.915Z,12.50
2023-05-12T03:23:24.013Z,12.50
2023-05-12T03:25:51.101Z,12.50
2023-05-12T03:28:18.509Z,12.50
2023-05-12T03:30:45.640Z,12.40
2023-05-12T03:33:13.040Z,12.40
2023-05-12T03:35:40.537Z,12.30
2023-05-12T03:38:07.953Z,12.40
2023-05-12T03:40:35.344Z,12.30
2023-05-12T03:43:02.740Z,12.30
2023-05-12T03:45:29.885Z,12.20
2023-05-12T03:47:57.294Z,12.30
2023-05-12T03:50:24.403Z,12.20
2023-05-12T03:52:56.225Z,12.20
2023-05-12T03:55:23.688Z,12.20
2023-05-12T03:57:51.078Z,12.20
2023-05-12T04:00:18.903Z,12.10
2023-05-12T04:02:46.552Z,12.10
2023-05-12T04:05:16.477Z,12.00
2023-05-12T04:07:43.564Z,11.90
2023-05-12T04:10:10.909Z,12.00
2023-05-12T04:12:38.265Z,12.00
2023-05-12T04:15:06.498Z,12.00
2023-05-12T04:17:33.859Z,11.90
2023-05-12T04:20:01.261Z,11.90
2023-05-12T04:22:28.517Z,11.90
2023-05-12T04:24:55.878Z,11.80
2023-05-12T04:27:23.077Z,11.80
2023-05-12T04:29:50.243Z,11.80
2023-05-12T04:32:17.572Z,11.80
2023-05-12T04:34:44.962Z,11.70
2023-05-12T04:37:12.242Z,11.70
2023-05-12T04:39:39.743Z,11.70
2023-05-12T04:42:07.503Z,11.60
2023-05-12T04:44:34.712Z,11.70
2023-05-12T04:47:01.788Z,11.60
2023-05-12T04:49:28.816Z,11.50
2023-05-12T04:51:56.428Z,11.50
2023-05-12T04:54:24.000Z,11.50
2023-05-12T04:56:51.703Z,11.60
2023-05-12T04:59:19.036Z,11.60
2023-05-12T05:01:46.474Z,11.60
2023-05-12T05:04:14.054Z,11.60
2023-05-12T05:06:41.265Z,11.60
2023-05-12T05:09:09.132Z,11.60
2023-05-12T05:11:36.391Z,11.60
2023-05-12T05:14:03.347Z,11.60
2023-05-12T05:16:30.777Z,11.70
2023-05-12T05:18:58.569Z,11.60
2023-05-12T05:21:25.821Z,11.70
2023-05-12T05:23:53.423Z,11.70
2023-05-12T05:26:21.709Z,11.60
2023-05-12T05:28:49.078Z,11.70
2023-05-12T05:31:17.517Z,11.70
2023-05-12T05:33:45.216Z,11.70
2023-05-12T05:36:12.687Z,11.70
2023-05-12T05:38:39.864Z,11.80
2023-05-12T05:41:07.726Z,11.70
2023-05-12T05:43:35.032Z,11.70
2023-05-12T05:46:02.337Z,11.70
2023-05-12T05:48:29.570Z,11.70
2023-05-12T05:50:56.808Z,11.70
2023-05-12T05:53:24.160Z,11.80
2023-05-12T05:55:51.432Z,11.80
2023-05-12T05:58:18.573Z,11.80
2023-05-12T06:00:45.992Z,11.80
2023-05-12T06:03:13.243Z,11.80
2023-05-12T06:05:42.594Z,11.80
2023-05-12T06:08:13.605Z,11.80
2023-05-12T06:10:43.748Z,11.80
2023-05-12T06:13:10.970Z,11.90
2023-05-12T06:15:38.837Z,12.00
2023-05-12T06:18:06.003Z,12.00
2023-05-12T06:20:33.456Z,11.90
2023-05-12T06:23:00.714Z,11.90
2023-05-12T06:25:28.173Z,11.90
2023-05-12T06:27:55.645Z,12.00
2023-05-12T06:30:23.003Z,12.00
2023-05-12T06:32:50.049Z,12.00
2023-05-12T06:35:17.453Z,12.00
2023-05-12T06:37:49.843Z,12.00
2023-05-12T06:40:17.656Z,12.10
2023-05-12T06:42:45.241Z,12.20
2023-05-12T06:45:13.347Z,12.20
2023-05-12T06:47:40.966Z,12.30
2023-05-12T06:50:08.945Z,12.30
2023-05-12T06:52:36.253Z,12.30
2023-05-12T06:55:03.683Z,12.40
2023-05-12T06:57:31.083Z,12.50
2023-05-12T06:59:58.487Z,12.40
2023-05-12T07:02:25.792Z,12.40
2023-05-12T07:04:52.901Z,12.50
2023-05-12T07:07:20.151Z,12.50
2023-05-12T07:09:47.307Z,12.60
2023-05-12T07:12:14.768Z,12.60
2023-05-12T07:14:41.816Z,12.60
2023-05-12T07:17:08.887Z,12.70
2023-05-12T07:19:36.336Z,12.60
2023-05-12T07:22:06.887Z,12.80
2023-05-12T07:24:34.339Z,12.70
2023-05-12T07:27:01.485Z,12.80
2023-05-12T07:29:28.985Z,12.90
2023-05-12T07:31:56.218Z,12.90
2023-05-12T07:34:23.329Z,12.90
2023-05-12T07:36:50.499Z,12.90
2023-05-12T07:39:23.798Z,13.00
2023-05-12T07:41:53.673Z,13.10
2023-05-12T07:44:21.462Z,13.10
2023-05-12T07:46:48.677Z,13.20
2023-05-12T07:49:15.864Z,13.30
2023-05-12T07:51:43.041Z,13.40
2023-05-12T07:54:10.324Z,13.40
2023-05-12T07:56:37.596Z,13.40
2023-05-12T07:59:04.901Z,13.40
2023-05-12T08:01:31.925Z,13.40
2023-05-12T08:03:59.099Z,13.50
2023-05-12T08:06:26.211Z,13.50
2023-05-12T08:08:53.734Z,13.60
2023-05-12T08:11:21.039Z,13.70
2023-05-12T08:13:48.293Z,13.80
2023-05-12T08:16:15.500Z,13.70
2023-05-12T08:18:42.639Z,13.70
2023-05-12T08:21:09.864Z,13.70
2023-05-12T08:23:39.771Z,13.90
2023-05-12T08:26:06.929Z,14.00
2023-05-12T08:28:34.345Z,13.90
2023-05-12T08:31:04.067Z,14.00
2023-05-12T08:33:31.982Z,14.00
2023-05-12T08:35:59.237Z,14.20
2023-05-12T08:38:26.646Z,14.30
2023-05-12T08:41:07.311Z,14.50
2023-05-12T08:43:44.175Z,14.80
2023-05-12T08:46:13.301Z,15.00
2023-05-12T08:48:41.151Z,15.20
2023-05-12T08:51:10.405Z,15.40
2023-05-12T08:53:38.697Z,15.40
2023-05-12T08:58:42.908Z,15.40
2023-05-12T09:01:12.612Z,15.50
2023-05-12T09:03:39.841Z,15.40
2023-05-12T09:06:08.443Z,15.50
2023-05-12T09:08:36.156Z,15.50
2023-05-12T09:11:03.467Z,15.60
2023-05-12T09:13:50.312Z,15.20
2023-05-12T09:16:25.494Z,15.20
2023-05-12T09:18:54.670Z,15.20
2023-05-12T09:21:22.377Z,15.10
2023-05-12T09:24:06.520Z,15.20
2023-05-12T09:26:56.070Z,15.20
2023-05-12T09:29:31.303Z,15.20
2023-05-12T09:32:02.491Z,15.20
2023-05-12T09:34:31.870Z,15.50
2023-05-12T09:37:04.198Z,15.60
2023-05-12T09:39:31.706Z,15.60
2023-05-12T09:41:58.816Z,15.70
2023-05-12T09:44:26.549Z,15.90
2023-05-12T09:46:53.688Z,16.00
2023-05-12T09:49:27.215Z,16.20
2023-05-12T09:51:57.368Z,16.30
2023-05-12T09:54:29.635Z,16.20
2023-05-12T09:57:02.587Z,16.30
2023-05-12T09:59:39.639Z,16.40
2023-05-12T10:02:09.940Z,16.20
2023-05-12T10:04:58.468Z,16.20
2023-05-12T10:07:27.969Z,16.40
2023-05-12T10:09:59.512Z,16.20
2023-05-12T10:12:26.653Z,16.00
2023-05-12T10:14:55.388Z,16.40
2023-05-12T10:17:23.464Z,16.70
2023-05-12T10:19:51.561Z,16.90
2023-05-12T10:22:20.780Z,16.70
2023-05-12T10:24:49.480Z,16.70
2023-05-12T10:27:17.464Z,16.60
2023-05-12T10:29:44.813Z,16.80
2023-05-12T10:32:12.230Z,17.00
2023-05-12T10:34:42.354Z,17.50
2023-05-12T10:37:12.004Z,17.60
2023-05-12T10:39:49.250Z,18.30
2023-05-12T10:42:27.034Z,17.70
2023-05-12T10:44:55.753Z,17.40
2023-05-12T10:47:29.717Z,17.10
2023-05-12T10:50:00.744Z,16.60
2023-05-12T10:52:27.996Z,16.30
2023-05-12T10:55:02.297Z,16.00
2023-05-12T10:57:33.549Z,16.10
2023-05-12T11:00:03.293Z,16.00
2023-05-12T11:02:34.523Z,16.10
2023-05-12T11:05:13.031Z,16.40
2023-05-12T11:07:41.862Z,16.40
2023-05-12T11:10:10.590Z,16.40
2023-05-12T11:12:38.198Z,16.70
2023-05-12T11:15:07.120Z,17.10
2023-05-12T11:17:34.920Z,16.90
2023-05-12T11:20:02.177Z,17.30
2023-05-12T11:22:29.752Z,18.00
2023-05-12T11:24:57.604Z,18.00
2023-05-12T11:27:24.860Z,17.90
2023-05-12T11:29:59.993Z,18.00
2023-05-12T11:32:27.862Z,17.90
2023-05-12T11:34:55.018Z,18.30
2023-05-12T11:37:23.004Z,18.50
2023-05-12T11:39:50.206Z,18.70
2023-05-12T11:42:19.688Z,18.50
2023-05-12T11:44:49.784Z,18.00
2023-05-12T11:47:19.542Z,18.20
2023-05-12T11:49:54.770Z,18.10
2023-05-12T11:52:23.706Z,18.10
2023-05-12T11:54:59.027Z,18.20
2023-05-12T11:57:27.812Z,17.80
2023-05-12T12:00:07.158Z,17.90
2023-05-12T12:02:36.030Z,17.70
2023-05-12T12:05:03.818Z,17.70
2023-05-12T12:07:35.784Z,18.00
2023-05-12T12:10:21.992Z,18.20
2023-05-12T12:12:49.040Z,18.60
2023-05-12T12:15:16.175Z,19.00
2023-05-12T12:17:43.260Z,18.90
2023-05-12T12:20:10.795Z,18.90
2023-05-12T12:22:37.925Z,19.10
2023-05-12T12:25:06.229Z,19.30
2023-05-12T12:27:33.491Z,19.70
2023-05-12T12:30:00.491Z,19.90
2023-05-12T12:32:27.796Z,20.20
2023-05-12T12:34:59.764Z,19.80
2023-05-12T12:37:27.413Z,20.00
2023-05-12T12:39:55.664Z,20.00
2023-05-12T12:42:22.923Z,20.30
2023-05-12T12:44:51.547Z,20.00
2023-05-12T12:47:18.953Z,20.40
2023-05-12T12:49:46.135Z,20.40
2023-05-12T12:52:13.643Z,20.10
2023-05-12T12:56:51.681Z,19.80
2023-05-12T12:57:32.884Z,20.20
2023-05-12T13:00:00.042Z,20.40
2023-05-12T13:02:27.264Z,20.40
2023-05-12T13:04:54.440Z,20.30
2023-05-12T13:07:22.002Z,20.10
2023-05-12T13:09:49.206Z,19.80
2023-05-12T13:12:16.618Z,19.70
2023-05-12T13:14:43.614Z,19.50
2023-05-12T13:17:10.822Z,19.60
2023-05-12T13:19:38.448Z,19.60
2023-05-12T13:22:06.317Z,19.60
2023-05-12T13:24:33.681Z,20.10
2023-05-12T13:27:00.987Z,19.70
2023-05-12T13:29:28.134Z,19.60
2023-05-12T13:31:55.435Z,19.50
2023-05-12T13:34:22.717Z,19.30
2023-05-12T13:36:49.821Z,19.10
2023-05-12T13:39:18.960Z,19.30
2023-05-12T13:41:46.981Z,19.70
2023-05-12T13:44:15.472Z,20.20
2023-05-12T13:46:42.810Z,20.00
2023-05-12T13:49:10.127Z,20.00
2023-05-12T13:51:37.128Z,19.70
2023-05-12T13:54:04.397Z,19.80
2023-05-12T13:56:31.745Z,19.60
2023-05-12T13:59:01.514Z,19.60
2023-05-12T14:01:31.132Z,19.50
2023-05-12T14:03:58.491Z,19.40
2023-05-12T14:06:25.605Z,19.10
2023-05-12T14:08:52.803Z,19.30
2023-05-12T14:11:19.906Z,19.30
2023-05-12T14:13:47.163Z,19.20
2023-05-12T14:16:14.452Z,19.20
2023-05-12T14:18:43.316Z,19.40
2023-05-12T14:21:11.037Z,19.20
2023-05-12T14:23:38.065Z,19.10
2023-05-12T14:26:05.341Z,19.40
2023-05-12T14:28:32.887Z,19.90
2023-05-12T14:31:00.015Z,20.20
2023-05-12T14:33:27.762Z,20.40
2023-05-12T14:36:05.882Z,20.70
2023-05-12T14:38:34.173Z,21.10
2023-05-12T14:41:01.137Z,21.20
2023-05-12T14:43:28.375Z,21.40
2023-05-12T14:45:55.778Z,21.60
2023-05-12T14:48:26.274Z,21.40
2023-05-12T14:50:54.391Z,21.20
2023-05-12T14:53:22.428Z,21.10
2023-05-12T14:55:50.403Z,21.40
2023-05-12T14:58:18.242Z,21.40
2023-05-12T15:00:47.573Z,21.60
2023-05-12T15:03:15.156Z,21.70
2023-05-12T15:06:01.702Z,21.60
2023-05-12T15:08:29.732Z,20.90
2023-05-12T15:10:56.870Z,20.70
2023-05-12T15:13:25.743Z,20.40
2023-05-12T15:15:55.264Z,20.30
2023-05-12T15:18:23.994Z,20.40
2023-05-12T15:20:51.634Z,20.60
2023-05-12T15:23:18.706Z,20.50
2023-05-12T15:25:45.967Z,20.40
2023-05-12T15:28:13.254Z,20.80
2023-05-12T15:30:40.408Z,21.30
2023-05-12T15:33:07.637Z,21.60
2023-05-12T15:35:35.167Z,21.50
2023-05-12T15:38:02.641Z,21.60
2023-05-12T15:40:31.021Z,21.50
2023-05-12T15:42:58.455Z,21.30
2023-05-12T15:45:25.647Z,20.90
2023-05-12T15:47:53.304Z,20.70
2023-05-12T15:50:22.968Z,20.50
2023-05-12T15:52:50.580Z,20.30
2023-05-12T15:55:18.243Z,20.20
2023-05-12T15:57:45.604Z,20.20
2023-05-12T16:00:13.990Z,20.10
2023-05-12T16:02:41.721Z,19.90
2023-05-12T16:05:09.914Z,19.80
2023-05-12T16:07:37.865Z,19.70
2023-05-12T16:10:05.944Z,19.60
2023-05-12T16:12:33.050Z,19.70
2023-05-12T16:15:00.325Z,19.70
2023-05-12T16:17:27.946Z,19.80
2023-05-12T16:19:57.256Z,19.90
2023-05-12T16:22:24.296Z,19.90
2023-05-12T16:24:51.424Z,20.10
2023-05-12T16:27:18.541Z,20.00
2023-05-12T16:29:46.026Z,19.80
2023-05-12T16:32:13.510Z,19.90
2023-05-12T16:34:40.616Z,19.90
2023-05-12T16:37:07.837Z,20.00
2023-05-12T16:39:37.018Z,19.80
2023-05-12T16:42:04.444Z,19.80
2023-05-12T16:44:31.885Z,19.90
2023-05-12T16:46:59.255Z,19.80
2023-05-12T16:49:26.314Z,19.80
2023-05-12T16:51:53.426Z,19.90
2023-05-12T16:54:20.526Z,20.20
2023-05-12T16:56:48.696Z,20.20
2023-05-12T16:59:16.064Z,20.20
2023-05-12T17:01:43.534Z,20.30
2023-05-12T17:04:12.777Z,20.30
2023-05-12T17:06:40.092Z,20.30
2023-05-12T17:09:11.559Z,20.40
2023-05-12T17:11:38.888Z,20.40
2023-05-12T17:14:06.608Z,20.30
2023-05-12T17:16:33.908Z,20.10
2023-05-12T17:21:34.125Z,20.10
2023-05-12T17:24:02.038Z,20.10
2023-05-12T17:26:30.013Z,19.90
2023-05-12T17:28:57.590Z,19.90
2023-05-12T17:31:24.739Z,19.90
2023-05-12T17:33:51.800Z,19.80
2023-05-12T17:36:18.959Z,19.90
2023-05-12T17:38:46.454Z,19.90
2023-05-12T17:41:13.691Z,19.80
2023-05-12T17:43:41.592Z,19.70
2023-05-12T17:46:09.311Z,19.70
2023-05-12T17:48:36.507Z,19.60
2023-05-12T17:51:03.897Z,19.70
2023-05-12T17:53:32.106Z,19.60
2023-05-12T17:56:00.034Z,19.60
2023-05-12T17:58:27.173Z,19.60
2023-05-12T18:00:54.176Z,19.60
2023-05-12T18:03:24.323Z,20.00
2023-05-12T18:05:53.453Z,20.00
2023-05-12T18:08:20.972Z,20.30
2023-05-12T18:10:50.019Z,19.90
2023-05-12T18:13:17.087Z,19.60
2023-05-12T18:15:44.178Z,19.40
2023-05-12T18:18:11.514Z,19.20
2023-05-12T18:20:42.680Z,19.20
2023-05-12T18:23:10.003Z,19.00
2023-05-12T18:25:37.352Z,19.00
2023-05-12T18:28:06.613Z,18.90
2023-05-12T18:30:33.981Z,18.90
2023-05-12T18:33:01.563Z,18.80
2023-05-12T18:35:28.866Z,18.70
2023-05-12T18:37:59.009Z,18.60
2023-05-12T18:40:26.374Z,18.50
2023-05-12T18:42:53.529Z,18.50
2023-05-12T18:45:20.815Z,18.40
2023-05-12T18:47:48.045Z,18.40
2023-05-12T18:50:15.147Z,18.40
2023-05-12T18:52:43.110Z,18.30
2023-05-12T18:55:11.040Z,18.20
2023-05-12T18:57:38.399Z,18.20
2023-05-12T19:00:06.887Z,18.10
2023-05-12T19:02:34.822Z,18.10
2023-05-12T19:05:02.483Z,18.10
2023-05-12T19:07:29.616Z,18.10
2023-05-12T19:09:56.605Z,18.00
2023-05-12T19:12:23.993Z,17.90
2023-05-12T19:14:50.958Z,17.90
2023-05-12T19:17:19.524Z,17.90
2023-05-12T19:19:46.799Z,17.90
2023-05-12T19:22:14.036Z,17.90
2023-05-12T19:24:41.403Z,17.80
2023-05-12T19:27:08.561Z,17.80
2023-05-12T19:29:35.747Z,17.70
2023-05-12T19:32:03.208Z,17.70
2023-05-12T19:34:31.653Z,17.80
2023-05-12T19:37:01.209Z,17.80
2023-05-12T19:39:29.170Z,17.80
2023-05-12T19:41:56.401Z,17.70
2023-05-12T19:44:23.562Z,17.60
2023-05-12T19:46:51.046Z,17.50
2023-05-12T19:49:18.292Z,17.40
2023-05-12T19:51:46.041Z,17.30
2023-05-12T19:54:13.645Z,17.40
2023-05-12T19:56:40.948Z,17.40
2023-05-12T19:59:08.226Z,17.40
2023-05-12T20:01:35.327Z,17.40
2023-05-12T20:04:02.872Z,17.30
2023-05-12T20:06:31.267Z,17.30
2023-05-12T20:08:58.702Z,17.30
2023-05-12T20:11:25.767Z,17.30
2023-05-12T20:13:52.938Z,17.30
2023-05-12T20:16:20.016Z,17.30
2023-05-12T20:18:47.100Z,17.20
2023-05-12T20:21:14.576Z,17.10
2023-05-12T20:23:42.338Z,17.10
2023-05-12T20:26:10.256Z,17.20
2023-05-12T20:28:37.572Z,17.10
2023-05-12T20:31:04.806Z,17.10
2023-05-12T20:33:32.553Z,17.00
2023-05-12T20:35:59.587Z,17.00
2023-05-12T20:38:27.014Z,17.00
2023-05-12T20:40:54.120Z,17.00
2023-05-12T20:43:21.643Z,17.00
2023-05-12T20:45:48.711Z,17.00
2023-05-12T20:48:15.931Z,17.00
2023-05-12T20:50:44.077Z,17.10
2023-05-12T20:53:11.492Z,17.00
2023-05-12T20:55:40.184Z,17.00
2023-05-12T20:58:07.583Z,16.90
2023-05-12T21:00:34.778Z,17.00
2023-05-12T21:03:03.994Z,16.90
2023-05-12T21:05:31.193Z,16.90
2023-05-12T21:07:58.711Z,16.80
2023-05-12T21:10:26.034Z,16.80
2023-05-12T21:12:53.069Z,16.70
2023-05-12T21:15:20.223Z,16.70
2023-05-12T21:17:47.304Z,16.80
2023-05-12T21:20:14.377Z,16.90
2023-05-12T21:22:41.576Z,16.70
2023-05-12T21:25:09.163Z,16.80
2023-05-12T21:27:44.126Z,16.80
2023-05-12T21:30:11.442Z,16.80
2023-05-12T21:32:39.678Z,16.80
2023-05-12T21:35:07.799Z,16.90
2023-05-12T21:37:35.165Z,16.80
2023-05-12T21:40:02.330Z,16.80
2023-05-12T21:42:29.374Z,16.80
2023-05-12T21:44:56.645Z,16.70
2023-05-12T21:47:23.896Z,16.70
2023-05-12T21:49:57.099Z,16.60
2023-05-12T21:52:25.221Z,16.50
2023-05-12T21:54:52.617Z,16.60
2023-05-12T21:57:19.769Z,16.60
2023-05-12T21:59:47.109Z,16.50
2023-05-12T22:02:14.032Z,16.50
2023-05-12T22:04:41.159Z,16.50
2023-05-12T22:07:11.003Z,16.50
2023-05-12T22:09:38.015Z,16.40
2023-05-12T22:12:05.474Z,16.40
2023-05-12T22:14:32.683Z,16.30
2023-05-12T22:17:00.765Z,16.30
2023-05-12T22:19:28.319Z,16.30
2023-05-12T22:21:55.524Z,16.30
2023-05-12T22:24:22.533Z,16.20
2023-05-12T22:26:50.085Z,16.20
2023-05-12T22:29:17.196Z,16.10
2023-05-12T22:31:44.711Z,16.10
2023-05-12T22:34:12.013Z,16.00
2023-05-12T22:36:39.165Z,16.00
2023-05-12T22:39:06.465Z,15.90
2023-05-12T22:41:33.445Z,15.90
2023-05-12T22:44:00.443Z,15.90
2023-05-12T22:46:27.866Z,15.90
2023-05-12T22:48:55.054Z,15.90
2023-05-12T22:51:22.161Z,15.90
2023-05-12T22:53:49.373Z,15.80
2023-05-12T22:56:16.524Z,15.80
2023-05-12T22:58:43.735Z,15.80
2023-05-12T23:01:11.135Z,15.70
2023-05-12T23:03:38.272Z,15.70
2023-05-12T23:06:06.218Z,15.70
2023-05-12T23:08:33.367Z,15.70
2023-05-12T23:11:00.681Z,15.70
2023-05-12T23:13:27.830Z,15.70
2023-05-12T23:15:54.928Z,15.70
2023-05-12T23:18:22.070Z,15.60
2023-05-12T23:20:49.096Z,15.60
2023-05-12T23:23:16.440Z,15.60
2023-05-12T23:25:43.399Z,15.60
2023-05-12T23:28:10.409Z,15.60
2023-05-12T23:30:37.541Z,15.50
2023-05-12T23:33:05.342Z,15.50
2023-05-12T23:35:32.803Z,15.50
2023-05-12T23:38:00.104Z,15.50
2023-05-12T23:40:27.363Z,15.40
2023-05-12T23:42:54.667Z,15.50
2023-05-12T23:45:21.768Z,15.50
2023-05-12T23:47:50.358Z,15.60
2023-05-12T23:50:17.541Z,15.50
2023-05-12T23:52:44.870Z,15.50
2023-05-12T23:55:18.266Z,15.50
2023-05-12T23:57:46.148Z,15.60
